sensor_id;sensor_type;location;lat;lon;timestamp;temperature;humidity
7445;DHT22;3764;48.126;11.594;2023-09-19T00:02:08;16.90;99.90
7445;DHT22;3764;48.126;11.594;2023-09-19T00:04:38;16.90;99.90
7445;DHT22;3764;48.126;11.594;2023-09-19T00:07:05;17.00;99.90
7445;DHT22;3764;48.126;11.594;2023-09-19T00:09:32;17.00;99.90
7445;DHT22;3764;48.126;11.594;2023-09-19T00:12:04;17.00;99.90
7445;DHT22;3764;48.126;11.594;2023-09-19T00:14:30;17.10;99.90
7445;DHT22;3764;48.126;11.594;2023-09-19T00:17:00;17.10;99.90
7445;DHT22;3764;48.126;11.594;2023-09-19T00:19:31;17.10;99.90
7445;DHT22;3764;48.126;11.594;2023-09-19T00:22:01;17.20;99.90
7445;DHT22;3764;48.126;11.594;2023-09-19T00:24:28;17.20;99.90
7445;DHT22;3764;48.126;11.594;2023-09-19T00:26:56;17.30;99.90
7445;DHT22;3764;48.126;11.594;2023-09-19T00:29:25;17.30;99.90
7445;DHT22;3764;48.126;11.594;2023-09-19T00:31:55;17.30;99.90
7445;DHT22;3764;48.126;11.594;2023-09-19T00:34:23;17.30;99.90
7445;DHT22;3764;48.126;11.594;2023-09-19T00:36:51;17.30;99.90
7445;DHT22;3764;48.126;11.594;2023-09-19T00:39:21;17.30;99.90
7445;DHT22;3764;48.126;11.594;2023-09-19T00:41:51;17.30;99.90
7445;DHT22;3764;48.126;11.594;2023-09-19T00:44:18;17.30;99.90
7445;DHT22;3764;48.126;11.594;2023-09-19T00:46:49;17.20;99.90
7445;DHT22;3764;48.126;11.594;2023-09-19T00:49:17;17.20;99.90
7445;DHT22;3764;48.126;11.594;2023-09-19T00:51:48;17.20;99.90
7445;DHT22;3764;48.126;11.594;2023-09-19T00:54:16;17.10;99.90
7445;DHT22;3764;48.126;11.594;2023-09-19T00:56:47;17.00;99.90
7445;DHT22;3764;48.126;11.594;2023-09-19T00:59:53;17.00;99.90
7445;DHT22;3764;48.126;11.594;2023-09-19T01:02:21;17.00;99.90
7445;DHT22;3764;48.126;11.594;2023-09-19T01:04:48;17.00;99.90
7445;DHT22;3764;48.126;11.594;2023-09-19T01:07:16;17.00;99.90
7445;DHT22;3764;48.126;11.594;2023-09-19T01:09:43;17.00;99.90
7445;DHT22;3764;48.126;11.594;2023-09-19T01:12:14;17.00;99.90
7445;DHT22;3764;48.126;11.594;2023-09-19T01:14:51;17.00;99.90
7445;DHT22;3764;48.126;11.594;2023-09-19T01:17:27;17.10;99.90
7445;DHT22;3764;48.126;11.594;2023-09-19T01:20:17;17.10;99.90
7445;DHT22;3764;48.126;11.594;2023-09-19T01:23:06;17.00;99.90
7445;DHT22;3764;48.126;11.594;2023-09-19T01:26:12;17.00;99.90
7445;DHT22;3764;48.126;11.594;2023-09-19T01:28:54;17.00;99.90
7445;DHT22;3764;48.126;11.594;2023-09-19T01:31:30;17.00;99.90
7445;DHT22;3764;48.126;11.594;2023-09-19T01:34:00;17.00;99.90
7445;DHT22;3764;48.126;11.594;2023-09-19T01:36:31;17.00;99.90
7445;DHT22;3764;48.126;11.594;2023-09-19T01:39:00;17.10;99.90
7445;DHT22;3764;48.126;11.594;2023-09-19T01:41:54;17.10;99.90
7445;DHT22;3764;48.126;11.594;2023-09-19T01:44:29;17.10;99.90
7445;DHT22;3764;48.126;11.594;2023-09-19T01:47:04;17.10;99.90
7445;DHT22;3764;48.126;11.594;2023-09-19T01:49:44;17.10;99.90
7445;DHT22;3764;48.126;11.594;2023-09-19T01:52:20;17.10;99.90
7445;DHT22;3764;48.126;11.594;2023-09-19T01:54:51;17.10;99.90
7445;DHT22;3764;48.126;11.594;2023-09-19T01:57:26;17.10;99.90
7445;DHT22;3764;48.126;11.594;2023-09-19T02:00:01;17.10;99.90
7445;DHT22;3764;48.126;11.594;2023-09-19T02:02:34;17.10;99.90
7445;DHT22;3764;48.126;11.594;2023-09-19T02:05:03;17.10;99.90
7445;DHT22;3764;48.126;11.594;2023-09-19T02:07:31;17.10;99.90
7445;DHT22;3764;48.126;11.594;2023-09-19T02:09:58;17.20;99.90
7445;DHT22;3764;48.126;11.594;2023-09-19T02:12:26;17.20;99.90
7445;DHT22;3764;48.126;11.594;2023-09-19T02:14:53;17.20;99.90
7445;DHT22;3764;48.126;11.594;2023-09-19T02:17:20;17.20;99.90
7445;DHT22;3764;48.126;11.594;2023-09-19T02:19:48;17.20;99.90
7445;DHT22;3764;48.126;11.594;2023-09-19T02:22:15;17.20;99.90
7445;DHT22;3764;48.126;11.594;2023-09-19T02:24:43;17.20;99.90
7445;DHT22;3764;48.126;11.594;2023-09-19T02:27:13;17.20;99.90
7445;DHT22;3764;48.126;11.594;2023-09-19T02:29:41;17.20;99.90
7445;DHT22;3764;48.126;11.594;2023-09-19T02:32:09;17.20;99.90
7445;DHT22;3764;48.126;11.594;2023-09-19T02:34:36;17.20;99.90
7445;DHT22;3764;48.126;11.594;2023-09-19T02:37:06;17.20;99.90
7445;DHT22;3764;48.126;11.594;2023-09-19T02:39:34;17.20;99.90
7445;DHT22;3764;48.126;11.594;2023-09-19T02:42:01;17.10;99.90
7445;DHT22;3764;48.126;11.594;2023-09-19T02:44:29;17.20;99.90
7445;DHT22;3764;48.126;11.594;2023-09-19T02:46:57;17.10;99.90
7445;DHT22;3764;48.126;11.594;2023-09-19T02:49:24;17.10;99.90
7445;DHT22;3764;48.126;11.594;2023-09-19T02:51:51;17.10;99.90
7445;DHT22;3764;48.126;11.594;2023-09-19T02:54:20;17.10;99.90
7445;DHT22;3764;48.126;11.594;2023-09-19T02:56:47;17.10;99.90
7445;DHT22;3764;48.126;11.594;2023-09-19T02:59:15;17.10;99.90
7445;DHT22;3764;48.126;11.594;2023-09-19T03:01:43;17.10;99.90
7445;DHT22;3764;48.126;11.594;2023-09-19T03:04:13;17.10;99.90
7445;DHT22;3764;48.126;11.594;2023-09-19T03:06:43;17.10;99.90
7445;DHT22;3764;48.126;11.594;2023-09-19T03:09:10;17.00;99.90
7445;DHT22;3764;48.126;11.594;2023-09-19T03:11:39;17.10;99.90
7445;DHT22;3764;48.126;11.594;2023-09-19T03:14:07;17.10;99.90
7445;DHT22;3764;48.126;11.594;2023-09-19T03:16:35;17.10;99.90
7445;DHT22;3764;48.126;11.594;2023-09-19T03:19:03;17.10;99.90
7445;DHT22;3764;48.126;11.594;2023-09-19T03:21:31;17.10;99.90
7445;DHT22;3764;48.126;11.594;2023-09-19T03:23:58;17.10;99.90
7445;DHT22;3764;48.126;11.594;2023-09-19T03:26:25;17.10;99.90
7445;DHT22;3764;48.126;11.594;2023-09-19T03:28:54;17.10;99.90
7445;DHT22;3764;48.126;11.594;2023-09-19T03:31:21;17.10;99.90
7445;DHT22;3764;48.126;11.594;2023-09-19T03:33:49;17.10;99.90
7445;DHT22;3764;48.126;11.594;2023-09-19T03:36:16;17.10;99.90
7445;DHT22;3764;48.126;11.594;2023-09-19T03:38:43;17.10;99.90
7445;DHT22;3764;48.126;11.594;2023-09-19T03:41:10;17.10;99.90
7445;DHT22;3764;48.126;11.594;2023-09-19T03:43:40;17.00;99.90
7445;DHT22;3764;48.126;11.594;2023-09-19T03:46:08;17.10;99.90
7445;DHT22;3764;48.126;11.594;2023-09-19T03:48:35;17.10;99.90
7445;DHT22;3764;48.126;11.594;2023-09-19T03:51:02;17.10;99.90
7445;DHT22;3764;48.126;11.594;2023-09-19T03:53:30;17.10;99.90
7445;DHT22;3764;48.126;11.594;2023-09-19T03:55:57;17.10;99.90
7445;DHT22;3764;48.126;11.594;2023-09-19T03:58:25;17.10;99.90
7445;DHT22;3764;48.126;11.594;2023-09-19T04:00:55;17.10;99.90
7445;DHT22;3764;48.126;11.594;2023-09-19T04:03:23;17.20;99.90
7445;DHT22;3764;48.126;11.594;2023-09-19T04:06:00;17.10;99.90
7445;DHT22;3764;48.126;11.594;2023-09-19T04:08:28;17.20;99.90
7445;DHT22;3764;48.126;11.594;2023-09-19T04:10:55;17.20;99.90
7445;DHT22;3764;48.126;11.594;2023-09-19T04:13:22;17.20;99.90
7445;DHT22;3764;48.126;11.594;2023-09-19T04:15:49;17.30;99.90
7445;DHT22;3764;48.126;11.594;2023-09-19T04:18:17;17.20;99.90
7445;DHT22;3764;48.126;11.594;2023-09-19T04:20:49;17.30;99.90
7445;DHT22;3764;48.126;11.594;2023-09-19T04:23:16;17.30;99.90
7445;DHT22;3764;48.126;11.594;2023-09-19T04:25:45;17.30;99.90
7445;DHT22;3764;48.126;11.594;2023-09-19T04:28:12;17.30;99.90
7445;DHT22;3764;48.126;11.594;2023-09-19T04:30:40;17.30;99.90
7445;DHT22;3764;48.126;11.594;2023-09-19T04:33:07;17.30;99.90
7445;DHT22;3764;48.126;11.594;2023-09-19T04:35:34;17.30;99.90
7445;DHT22;3764;48.126;11.594;2023-09-19T04:38:03;17.30;99.90
7445;DHT22;3764;48.126;11.594;2023-09-19T04:40:32;17.30;99.90
7445;DHT22;3764;48.126;11.594;2023-09-19T04:42:59;17.40;99.90
7445;DHT22;3764;48.126;11.594;2023-09-19T04:45:27;17.30;99.90
7445;DHT22;3764;48.126;11.594;2023-09-19T04:47:55;17.30;99.90
7445;DHT22;3764;48.126;11.594;2023-09-19T04:50:22;17.30;99.90
7445;DHT22;3764;48.126;11.594;2023-09-19T04:52:52;17.30;99.90
7445;DHT22;3764;48.126;11.594;2023-09-19T04:55:20;17.30;99.90
7445;DHT22;3764;48.126;11.594;2023-09-19T04:57:50;17.30;99.90
7445;DHT22;3764;48.126;11.594;2023-09-19T05:00:19;17.30;99.90
7445;DHT22;3764;48.126;11.594;2023-09-19T05:02:50;17.30;99.90
7445;DHT22;3764;48.126;11.594;2023-09-19T05:05:18;17.30;99.90
7445;DHT22;3764;48.126;11.594;2023-09-19T05:07:46;17.30;99.90
7445;DHT22;3764;48.126;11.594;2023-09-19T05:10:13;17.30;99.90
7445;DHT22;3764;48.126;11.594;2023-09-19T05:12:43;17.30;99.90
7445;DHT22;3764;48.126;11.594;2023-09-19T05:15:13;17.30;99.90
7445;DHT22;3764;48.126;11.594;2023-09-19T05:17:48;17.30;99.90
7445;DHT22;3764;48.126;11.594;2023-09-19T05:20:16;17.30;99.90
7445;DHT22;3764;48.126;11.594;2023-09-19T05:22:50;17.40;99.90
7445;DHT22;3764;48.126;11.594;2023-09-19T05:25:17;17.40;99.90
7445;DHT22;3764;48.126;11.594;2023-09-19T05:27:47;17.40;99.90
7445;DHT22;3764;48.126;11.594;2023-09-19T05:30:16;17.40;99.90
7445;DHT22;3764;48.126;11.594;2023-09-19T05:32:43;17.30;99.90
7445;DHT22;3764;48.126;11.594;2023-09-19T05:35:11;17.30;99.90
7445;DHT22;3764;48.126;11.594;2023-09-19T05:37:38;17.30;99.90
7445;DHT22;3764;48.126;11.594;2023-09-19T05:40:07;17.30;99.90
7445;DHT22;3764;48.126;11.594;2023-09-19T05:42:36;17.30;99.90
7445;DHT22;3764;48.126;11.594;2023-09-19T05:45:06;17.30;99.90
7445;DHT22;3764;48.126;11.594;2023-09-19T05:47:33;17.30;99.90
7445;DHT22;3764;48.126;11.594;2023-09-19T05:50:01;17.40;99.90
7445;DHT22;3764;48.126;11.594;2023-09-19T05:52:28;17.40;99.90
7445;DHT22;3764;48.126;11.594;2023-09-19T05:54:56;17.30;99.90
7445;DHT22;3764;48.126;11.594;2023-09-19T05:57:23;17.30;99.90
7445;DHT22;3764;48.126;11.594;2023-09-19T05:59:50;17.30;99.90
7445;DHT22;3764;48.126;11.594;2023-09-19T06:02:19;17.30;99.90
7445;DHT22;3764;48.126;11.594;2023-09-19T06:04:49;17.30;99.90
7445;DHT22;3764;48.126;11.594;2023-09-19T06:07:18;17.30;99.90
7445;DHT22;3764;48.126;11.594;2023-09-19T06:09:47;17.20;99.90
7445;DHT22;3764;48.126;11.594;2023-09-19T06:12:15;17.20;99.90
7445;DHT22;3764;48.126;11.594;2023-09-19T06:14:43;17.20;99.90
7445;DHT22;3764;48.126;11.594;2023-09-19T06:17:10;17.30;99.90
7445;DHT22;3764;48.126;11.594;2023-09-19T06:19:39;17.30;99.90
7445;DHT22;3764;48.126;11.594;2023-09-19T06:22:07;17.30;99.90
7445;DHT22;3764;48.126;11.594;2023-09-19T06:24:34;17.30;99.90
7445;DHT22;3764;48.126;11.594;2023-09-19T06:27:01;17.40;99.90
7445;DHT22;3764;48.126;11.594;2023-09-19T06:29:30;17.40;99.90
7445;DHT22;3764;48.126;11.594;2023-09-19T06:31:57;17.40;99.90
7445;DHT22;3764;48.126;11.594;2023-09-19T06:34:24;17.40;99.90
7445;DHT22;3764;48.126;11.594;2023-09-19T06:36:53;17.40;99.90
7445;DHT22;3764;48.126;11.594;2023-09-19T06:39:21;17.40;99.90
7445;DHT22;3764;48.126;11.594;2023-09-19T06:41:49;17.50;99.90
7445;DHT22;3764;48.126;11.594;2023-09-19T06:44:16;17.50;99.90
7445;DHT22;3764;48.126;11.594;2023-09-19T06:46:43;17.50;99.90
7445;DHT22;3764;48.126;11.594;2023-09-19T06:49:12;17.50;99.90
7445;DHT22;3764;48.126;11.594;2023-09-19T06:51:41;17.50;99.90
7445;DHT22;3764;48.126;11.594;2023-09-19T06:54:10;17.60;99.90
7445;DHT22;3764;48.126;11.594;2023-09-19T06:56:38;17.60;99.90
7445;DHT22;3764;48.126;11.594;2023-09-19T06:59:07;17.50;99.90
7445;DHT22;3764;48.126;11.594;2023-09-19T07:01:34;17.50;99.90
7445;DHT22;3764;48.126;11.594;2023-09-19T07:04:03;17.50;99.90
7445;DHT22;3764;48.126;11.594;2023-09-19T07:06:31;17.60;99.90
7445;DHT22;3764;48.126;11.594;2023-09-19T07:08:59;17.60;99.90
7445;DHT22;3764;48.126;11.594;2023-09-19T07:11:27;17.60;99.90
7445;DHT22;3764;48.126;11.594;2023-09-19T07:13:57;17.70;99.90
7445;DHT22;3764;48.126;11.594;2023-09-19T07:16:24;17.70;99.90
7445;DHT22;3764;48.126;11.594;2023-09-19T07:18:55;17.70;99.90
7445;DHT22;3764;48.126;11.594;2023-09-19T07:21:23;17.70;99.90
7445;DHT22;3764;48.126;11.594;2023-09-19T07:23:50;17.80;99.90
7445;DHT22;3764;48.126;11.594;2023-09-19T07:26:17;17.70;99.90
7445;DHT22;3764;48.126;11.594;2023-09-19T07:28:46;17.80;99.90
7445;DHT22;3764;48.126;11.594;2023-09-19T07:31:13;17.70;99.90
7445;DHT22;3764;48.126;11.594;2023-09-19T07:33:41;17.70;99.90
7445;DHT22;3764;48.126;11.594;2023-09-19T07:36:11;17.80;99.90
7445;DHT22;3764;48.126;11.594;2023-09-19T07:38:39;17.80;99.90
7445;DHT22;3764;48.126;11.594;2023-09-19T07:41:07;17.80;99.90
7445;DHT22;3764;48.126;11.594;2023-09-19T07:43:34;17.80;99.90
7445;DHT22;3764;48.126;11.594;2023-09-19T07:46:05;17.80;99.90
7445;DHT22;3764;48.126;11.594;2023-09-19T07:48:34;17.80;99.90
7445;DHT22;3764;48.126;11.594;2023-09-19T07:51:03;17.80;99.90
7445;DHT22;3764;48.126;11.594;2023-09-19T07:53:32;17.90;99.90
7445;DHT22;3764;48.126;11.594;2023-09-19T07:56:04;17.90;99.90
7445;DHT22;3764;48.126;11.594;2023-09-19T07:58:32;17.90;99.90
7445;DHT22;3764;48.126;11.594;2023-09-19T08:01:05;18.00;99.90
7445;DHT22;3764;48.126;11.594;2023-09-19T08:03:32;18.00;99.90
7445;DHT22;3764;48.126;11.594;2023-09-19T08:06:00;18.00;99.90
7445;DHT22;3764;48.126;11.594;2023-09-19T08:08:27;18.10;99.90
7445;DHT22;3764;48.126;11.594;2023-09-19T08:10:55;18.10;99.90
7445;DHT22;3764;48.126;11.594;2023-09-19T08:13:23;18.20;99.90
7445;DHT22;3764;48.126;11.594;2023-09-19T08:15:50;18.20;99.90
7445;DHT22;3764;48.126;11.594;2023-09-19T08:18:20;18.20;99.90
7445;DHT22;3764;48.126;11.594;2023-09-19T08:20:52;18.30;99.90
7445;DHT22;3764;48.126;11.594;2023-09-19T08:23:19;18.30;99.90
7445;DHT22;3764;48.126;11.594;2023-09-19T08:25:47;18.40;99.90
7445;DHT22;3764;48.126;11.594;2023-09-19T08:28:14;18.40;99.90
7445;DHT22;3764;48.126;11.594;2023-09-19T08:30:45;18.50;99.90
7445;DHT22;3764;48.126;11.594;2023-09-19T08:33:12;18.50;99.90
7445;DHT22;3764;48.126;11.594;2023-09-19T08:35:42;18.50;99.90
7445;DHT22;3764;48.126;11.594;2023-09-19T08:38:11;18.50;99.90
7445;DHT22;3764;48.126;11.594;2023-09-19T08:40:40;18.50;99.90
7445;DHT22;3764;48.126;11.594;2023-09-19T08:43:08;18.50;99.90
7445;DHT22;3764;48.126;11.594;2023-09-19T08:45:35;18.50;99.90
7445;DHT22;3764;48.126;11.594;2023-09-19T08:48:14;18.60;99.90
7445;DHT22;3764;48.126;11.594;2023-09-19T08:50:49;18.60;99.90
7445;DHT22;3764;48.126;11.594;2023-09-19T08:53:21;18.70;99.90
7445;DHT22;3764;48.126;11.594;2023-09-19T08:55:53;18.70;99.90
7445;DHT22;3764;48.126;11.594;2023-09-19T08:58:26;18.80;99.90
7445;DHT22;3764;48.126;11.594;2023-09-19T09:00:56;18.80;99.90
7445;DHT22;3764;48.126;11.594;2023-09-19T09:03:32;18.80;99.90
7445;DHT22;3764;48.126;11.594;2023-09-19T09:06:01;18.90;99.90
7445;DHT22;3764;48.126;11.594;2023-09-19T09:08:31;19.00;99.90
7445;DHT22;3764;48.126;11.594;2023-09-19T09:10:59;19.00;99.90
7445;DHT22;3764;48.126;11.594;2023-09-19T09:13:26;19.10;99.90
7445;DHT22;3764;48.126;11.594;2023-09-19T09:15:54;19.10;99.90
7445;DHT22;3764;48.126;11.594;2023-09-19T09:18:21;19.10;99.90
7445;DHT22;3764;48.126;11.594;2023-09-19T09:20:49;19.10;99.90
7445;DHT22;3764;48.126;11.594;2023-09-19T09:23:18;19.20;99.90
7445;DHT22;3764;48.126;11.594;2023-09-19T09:25:47;19.10;99.90
7445;DHT22;3764;48.126;11.594;2023-09-19T09:28:20;19.10;99.90
7445;DHT22;3764;48.126;11.594;2023-09-19T09:30:47;19.10;99.90
7445;DHT22;3764;48.126;11.594;2023-09-19T09:33:15;19.10;99.90
7445;DHT22;3764;48.126;11.594;2023-09-19T09:35:49;19.10;99.90
7445;DHT22;3764;48.126;11.594;2023-09-19T09:38:21;19.10;99.90
7445;DHT22;3764;48.126;11.594;2023-09-19T09:40:52;19.20;99.90
7445;DHT22;3764;48.126;11.594;2023-09-19T09:43:29;19.20;99.90
7445;DHT22;3764;48.126;11.594;2023-09-19T09:46:11;19.30;99.90
7445;DHT22;3764;48.126;11.594;2023-09-19T09:48:57;19.40;99.90
7445;DHT22;3764;48.126;11.594;2023-09-19T09:51:38;19.40;99.90
7445;DHT22;3764;48.126;11.594;2023-09-19T09:54:13;19.50;99.90
7445;DHT22;3764;48.126;11.594;2023-09-19T09:56:54;19.50;99.90
7445;DHT22;3764;48.126;11.594;2023-09-19T09:59:47;19.60;99.90
7445;DHT22;3764;48.126;11.594;2023-09-19T10:02:16;19.60;99.90
7445;DHT22;3764;48.126;11.594;2023-09-19T10:04:50;19.70;99.90
7445;DHT22;3764;48.126;11.594;2023-09-19T10:07:36;19.70;99.90
7445;DHT22;3764;48.126;11.594;2023-09-19T10:10:08;19.90;99.90
7445;DHT22;3764;48.126;11.594;2023-09-19T10:12:48;19.90;99.90
7445;DHT22;3764;48.126;11.594;2023-09-19T10:15:17;20.00;99.90
7445;DHT22;3764;48.126;11.594;2023-09-19T10:17:47;20.10;99.90
7445;DHT22;3764;48.126;11.594;2023-09-19T10:20:15;20.20;99.90
7445;DHT22;3764;48.126;11.594;2023-09-19T10:23:00;20.20;99.90
7445;DHT22;3764;48.126;11.594;2023-09-19T10:25:29;20.20;99.90
7445;DHT22;3764;48.126;11.594;2023-09-19T10:27:58;20.20;99.90
7445;DHT22;3764;48.126;11.594;2023-09-19T10:30:29;20.20;99.90
7445;DHT22;3764;48.126;11.594;2023-09-19T10:33:01;20.30;99.90
7445;DHT22;3764;48.126;11.594;2023-09-19T10:35:29;20.40;99.90
7445;DHT22;3764;48.126;11.594;2023-09-19T10:37:59;20.30;99.90
7445;DHT22;3764;48.126;11.594;2023-09-19T10:40:28;20.30;99.90
7445;DHT22;3764;48.126;11.594;2023-09-19T10:43:02;20.30;99.90
7445;DHT22;3764;48.126;11.594;2023-09-19T10:45:33;20.30;99.90
7445;DHT22;3764;48.126;11.594;2023-09-19T10:48:00;20.30;99.90
7445;DHT22;3764;48.126;11.594;2023-09-19T10:50:31;20.30;99.90
7445;DHT22;3764;48.126;11.594;2023-09-19T10:53:03;20.30;99.90
7445;DHT22;3764;48.126;11.594;2023-09-19T10:55:34;20.30;99.90
7445;DHT22;3764;48.126;11.594;2023-09-19T10:58:02;20.40;99.90
7445;DHT22;3764;48.126;11.594;2023-09-19T11:00:53;20.40;99.90
7445;DHT22;3764;48.126;11.594;2023-09-19T11:03:22;20.40;99.90
7445;DHT22;3764;48.126;11.594;2023-09-19T11:06:07;20.40;99.90
7445;DHT22;3764;48.126;11.594;2023-09-19T11:08:58;20.40;99.90
7445;DHT22;3764;48.126;11.594;2023-09-19T11:11:45;20.40;99.90
7445;DHT22;3764;48.126;11.594;2023-09-19T11:14:37;20.30;99.90
7445;DHT22;3764;48.126;11.594;2023-09-19T11:20:24;20.20;99.90
7445;DHT22;3764;48.126;11.594;2023-09-19T11:23:28;20.10;99.90
7445;DHT22;3764;48.126;11.594;2023-09-19T11:25:56;20.10;99.90
7445;DHT22;3764;48.126;11.594;2023-09-19T11:28:35;20.10;99.90
7445;DHT22;3764;48.126;11.594;2023-09-19T11:34:37;20.00;99.90
7445;DHT22;3764;48.126;11.594;2023-09-19T11:40:45;20.10;99.90
7445;DHT22;3764;48.126;11.594;2023-09-19T11:43:32;20.10;99.90
7445;DHT22;3764;48.126;11.594;2023-09-19T11:46:04;20.10;99.90
7445;DHT22;3764;48.126;11.594;2023-09-19T11:48:32;20.10;99.90
7445;DHT22;3764;48.126;11.594;2023-09-19T11:51:00;20.20;99.90
7445;DHT22;3764;48.126;11.594;2023-09-19T11:53:33;20.20;99.90
7445;DHT22;3764;48.126;11.594;2023-09-19T11:56:04;20.30;99.90
7445;DHT22;3764;48.126;11.594;2023-09-19T11:58:37;20.30;99.90
7445;DHT22;3764;48.126;11.594;2023-09-19T12:01:05;20.30;99.90
7445;DHT22;3764;48.126;11.594;2023-09-19T12:03:41;20.30;99.90
7445;DHT22;3764;48.126;11.594;2023-09-19T12:06:12;20.40;99.90
7445;DHT22;3764;48.126;11.594;2023-09-19T12:08:41;20.50;99.90
7445;DHT22;3764;48.126;11.594;2023-09-19T12:11:13;20.50;99.90
7445;DHT22;3764;48.126;11.594;2023-09-19T12:13:43;20.50;99.90
7445;DHT22;3764;48.126;11.594;2023-09-19T12:16:15;20.60;99.90
7445;DHT22;3764;48.126;11.594;2023-09-19T12:18:43;20.70;99.90
7445;DHT22;3764;48.126;11.594;2023-09-19T12:21:22;20.70;99.90
7445;DHT22;3764;48.126;11.594;2023-09-19T12:24:12;20.80;99.90
7445;DHT22;3764;48.126;11.594;2023-09-19T12:26:40;20.90;99.90
7445;DHT22;3764;48.126;11.594;2023-09-19T12:29:17;20.90;99.90
7445;DHT22;3764;48.126;11.594;2023-09-19T12:31:52;21.00;99.90
7445;DHT22;3764;48.126;11.594;2023-09-19T12:34:25;21.00;99.90
7445;DHT22;3764;48.126;11.594;2023-09-19T12:37:07;21.10;99.90
7445;DHT22;3764;48.126;11.594;2023-09-19T12:39:39;21.10;99.90
7445;DHT22;3764;48.126;11.594;2023-09-19T12:42:10;21.10;99.90
7445;DHT22;3764;48.126;11.594;2023-09-19T12:44:43;21.20;99.90
7445;DHT22;3764;48.126;11.594;2023-09-19T12:47:12;21.20;99.90
7445;DHT22;3764;48.126;11.594;2023-09-19T12:50:07;21.20;99.90
7445;DHT22;3764;48.126;11.594;2023-09-19T12:52:40;21.20;99.90
7445;DHT22;3764;48.126;11.594;2023-09-19T12:55:07;21.20;99.90
7445;DHT22;3764;48.126;11.594;2023-09-19T12:57:36;21.20;99.90
7445;DHT22;3764;48.126;11.594;2023-09-19T13:00:07;21.20;99.90
7445;DHT22;3764;48.126;11.594;2023-09-19T13:02:36;21.20;99.90
7445;DHT22;3764;48.126;11.594;2023-09-19T13:05:04;21.20;99.90
7445;DHT22;3764;48.126;11.594;2023-09-19T13:07:42;21.20;99.90
7445;DHT22;3764;48.126;11.594;2023-09-19T13:10:15;21.20;99.90
7445;DHT22;3764;48.126;11.594;2023-09-19T13:12:43;21.20;99.90
7445;DHT22;3764;48.126;11.594;2023-09-19T13:15:15;21.30;99.90
7445;DHT22;3764;48.126;11.594;2023-09-19T13:17:46;21.40;99.90
7445;DHT22;3764;48.126;11.594;2023-09-19T13:20:22;21.50;99.90
7445;DHT22;3764;48.126;11.594;2023-09-19T13:22:54;21.50;99.90
7445;DHT22;3764;48.126;11.594;2023-09-19T13:25:24;21.50;99.90
7445;DHT22;3764;48.126;11.594;2023-09-19T13:27:53;21.50;99.90
7445;DHT22;3764;48.126;11.594;2023-09-19T13:30:24;21.50;99.90
7445;DHT22;3764;48.126;11.594;2023-09-19T13:32:52;21.50;99.90
7445;DHT22;3764;48.126;11.594;2023-09-19T13:35:20;21.40;99.90
7445;DHT22;3764;48.126;11.594;2023-09-19T13:37:47;21.50;99.90
7445;DHT22;3764;48.126;11.594;2023-09-19T13:40:17;21.40;99.90
7445;DHT22;3764;48.126;11.594;2023-09-19T13:42:44;21.40;99.90
7445;DHT22;3764;48.126;11.594;2023-09-19T13:45:11;21.40;99.90
7445;DHT22;3764;48.126;11.594;2023-09-19T13:47:43;21.40;99.90
7445;DHT22;3764;48.126;11.594;2023-09-19T13:50:10;21.40;99.90
7445;DHT22;3764;48.126;11.594;2023-09-19T13:52:37;21.40;99.90
7445;DHT22;3764;48.126;11.594;2023-09-19T13:55:04;21.40;99.90
7445;DHT22;3764;48.126;11.594;2023-09-19T13:57:32;21.40;99.90
7445;DHT22;3764;48.126;11.594;2023-09-19T13:59:59;21.50;99.90
7445;DHT22;3764;48.126;11.594;2023-09-19T14:02:27;21.50;99.90
7445;DHT22;3764;48.126;11.594;2023-09-19T14:04:54;21.50;99.90
7445;DHT22;3764;48.126;11.594;2023-09-19T14:07:23;21.50;99.90
7445;DHT22;3764;48.126;11.594;2023-09-19T14:09:51;21.50;99.90
7445;DHT22;3764;48.126;11.594;2023-09-19T14:12:18;21.50;99.90
7445;DHT22;3764;48.126;11.594;2023-09-19T14:14:45;21.50;99.90
7445;DHT22;3764;48.126;11.594;2023-09-19T14:17:13;21.50;99.90
7445;DHT22;3764;48.126;11.594;2023-09-19T14:19:41;21.50;99.90
7445;DHT22;3764;48.126;11.594;2023-09-19T14:22:10;21.60;99.90
7445;DHT22;3764;48.126;11.594;2023-09-19T14:24:37;21.60;99.90
7445;DHT22;3764;48.126;11.594;2023-09-19T14:27:04;21.60;99.90
7445;DHT22;3764;48.126;11.594;2023-09-19T14:29:34;21.60;99.90
7445;DHT22;3764;48.126;11.594;2023-09-19T14:32:02;21.60;99.90
7445;DHT22;3764;48.126;11.594;2023-09-19T14:34:29;21.70;99.90
7445;DHT22;3764;48.126;11.594;2023-09-19T14:36:56;21.70;99.90
7445;DHT22;3764;48.126;11.594;2023-09-19T14:39:24;21.70;99.90
7445;DHT22;3764;48.126;11.594;2023-09-19T14:41:53;21.70;99.90
7445;DHT22;3764;48.126;11.594;2023-09-19T14:44:20;21.70;99.90
7445;DHT22;3764;48.126;11.594;2023-09-19T14:46:48;21.70;99.90
7445;DHT22;3764;48.126;11.594;2023-09-19T14:49:15;21.70;99.90
7445;DHT22;3764;48.126;11.594;2023-09-19T14:51:42;21.70;99.90
7445;DHT22;3764;48.126;11.594;2023-09-19T14:54:10;21.70;99.90
7445;DHT22;3764;48.126;11.594;2023-09-19T14:56:39;21.70;99.90
7445;DHT22;3764;48.126;11.594;2023-09-19T14:59:06;21.70;99.90
7445;DHT22;3764;48.126;11.594;2023-09-19T15:01:33;21.80;99.90
7445;DHT22;3764;48.126;11.594;2023-09-19T15:04:00;21.80;99.90
7445;DHT22;3764;48.126;11.594;2023-09-19T15:06:28;21.80;99.90
7445;DHT22;3764;48.126;11.594;2023-09-19T15:08:55;21.80;99.90
7445;DHT22;3764;48.126;11.594;2023-09-19T15:11:22;21.80;99.90
7445;DHT22;3764;48.126;11.594;2023-09-19T15:13:52;21.70;99.90
7445;DHT22;3764;48.126;11.594;2023-09-19T15:16:20;21.70;99.90
7445;DHT22;3764;48.126;11.594;2023-09-19T15:18:47;21.70;99.90
7445;DHT22;3764;48.126;11.594;2023-09-19T15:21:15;21.60;99.90
7445;DHT22;3764;48.126;11.594;2023-09-19T15:23:43;21.60;99.90
7445;DHT22;3764;48.126;11.594;2023-09-19T15:26:13;21.60;99.90
7445;DHT22;3764;48.126;11.594;2023-09-19T15:28:43;21.60;99.90
7445;DHT22;3764;48.126;11.594;2023-09-19T15:31:12;21.60;99.90
7445;DHT22;3764;48.126;11.594;2023-09-19T15:33:40;21.60;99.90
7445;DHT22;3764;48.126;11.594;2023-09-19T15:36:08;21.60;99.90
7445;DHT22;3764;48.126;11.594;2023-09-19T15:38:57;21.50;99.90
7445;DHT22;3764;48.126;11.594;2023-09-19T15:41:25;21.50;99.90
7445;DHT22;3764;48.126;11.594;2023-09-19T15:43:53;21.50;99.90
7445;DHT22;3764;48.126;11.594;2023-09-19T15:46:23;21.40;99.90
7445;DHT22;3764;48.126;11.594;2023-09-19T15:48:52;21.40;99.90
7445;DHT22;3764;48.126;11.594;2023-09-19T15:51:19;21.40;99.90
7445;DHT22;3764;48.126;11.594;2023-09-19T15:53:48;21.40;99.90
7445;DHT22;3764;48.126;11.594;2023-09-19T15:56:16;21.40;99.90
7445;DHT22;3764;48.126;11.594;2023-09-19T15:58:44;21.40;99.90
7445;DHT22;3764;48.126;11.594;2023-09-19T16:01:12;21.40;99.90
7445;DHT22;3764;48.126;11.594;2023-09-19T16:03:43;21.40;99.90
7445;DHT22;3764;48.126;11.594;2023-09-19T16:06:12;21.30;99.90
7445;DHT22;3764;48.126;11.594;2023-09-19T16:08:40;21.40;99.90
7445;DHT22;3764;48.126;11.594;2023-09-19T16:11:07;21.30;99.90
7445;DHT22;3764;48.126;11.594;2023-09-19T16:13:35;21.30;99.90
7445;DHT22;3764;48.126;11.594;2023-09-19T16:16:03;21.30;99.90